Time;durP1;ratioP1;P1;durP2;ratioP2;P2;SDS_P1;SDS_P2;PMS_P1;PMS_P2;Temp;Humidity;BMP_temperature;BMP_pressure;BME280_temperature;BME280_humidity;BME280_pressure;Samples;Min_cycle;Max_cycle;Signal;HPM_P1;HPM_P2
2022/03/12 00:01:57;;;;;;;17.50;7.77;;;;;;;2.15;50.72;101656.91;7410267;19;20380;-48
2022/03/12 00:04:26;;;;;;;38.03;14.70;;;;;;;2.05;50.58;101658.47;7401045;19;20753;-50
2022/03/12 00:06:58;;;;;;;16.00;7.00;;;;;;;2.10;51.00;101649.63;7405691;19;20393;-53
2022/03/12 00:09:30;;;;;;;81.03;28.07;;;;;;;2.08;52.20;101648.56;7399900;19;20414;-49
2022/03/12 00:12:00;;;;;;;16.30;7.00;;;;;;;1.98;50.77;101657.94;7406085;19;20371;-48
2022/03/12 00:14:31;;;;;;;14.73;7.47;;;;;;;2.01;50.49;101660.72;7401195;19;20407;-49
2022/03/12 00:17:03;;;;;;;12.93;7.40;;;;;;;1.98;51.59;101647.75;7405405;19;20387;-53
2022/03/12 00:19:32;;;;;;;77.57;26.47;;;;;;;2.07;56.43;101646.78;7401376;19;20414;-48
2022/03/12 00:22:05;;;;;;;11.83;6.37;;;;;;;1.99;50.68;101646.97;7404050;19;20414;-50
2022/03/12 00:24:40;;;;;;;17.10;7.07;;;;;;;1.95;50.57;101649.13;7404633;19;20413;-49
2022/03/12 00:27:10;;;;;;;29.77;10.90;;;;;;;1.97;51.19;101651.06;7402469;19;20464;-57
2022/03/12 00:29:40;;;;;;;16.97;8.20;;;;;;;2.07;50.85;101644.22;7402926;19;20377;-50
2022/03/12 00:32:14;;;;;;;19.90;6.60;;;;;;;2.01;49.63;101640.38;7396763;19;20390;-55
2022/03/12 00:34:43;;;;;;;19.83;9.70;;;;;;;2.02;50.11;101637.06;7396847;19;20409;-48
2022/03/12 00:37:13;;;;;;;13.60;7.90;;;;;;;2.00;49.64;101640.25;7394399;19;20910;-50
2022/03/12 00:39:47;;;;;;;16.33;7.20;;;;;;;2.05;49.94;101638.13;7397771;19;20390;-47
2022/03/12 00:42:17;;;;;;;15.37;7.47;;;;;;;1.98;48.99;101640.09;7394518;19;20699;-48
2022/03/12 00:44:46;;;;;;;48.13;17.43;;;;;;;1.96;50.16;101631.44;7396280;19;20415;-48
2022/03/12 00:47:16;;;;;;;18.63;7.60;;;;;;;1.99;49.51;101626.63;7394300;19;20386;-48
2022/03/12 00:49:46;;;;;;;16.40;6.80;;;;;;;1.94;49.15;101637.16;7395434;19;20391;-49
2022/03/12 00:52:16;;;;;;;14.90;6.93;;;;;;;1.93;48.55;101618.44;7393779;19;20398;-50
2022/03/12 00:54:48;;;;;;;29.53;12.00;;;;;;;1.99;49.78;101616.44;7396251;19;20413;-51
2022/03/12 00:57:18;;;;;;;19.10;8.30;;;;;;;2.00;49.79;101610.59;7394078;19;20727;-47
2022/03/12 00:59:47;;;;;;;18.90;7.37;;;;;;;1.92;48.66;101606.47;7396497;19;20467;-48
2022/03/12 01:02:18;;;;;;;17.67;7.40;;;;;;;1.88;49.37;101617.09;7397821;19;20720;-50
2022/03/12 01:04:47;;;;;;;15.10;7.10;;;;;;;1.81;48.67;101618.22;7395758;19;20419;-51
2022/03/12 01:07:17;;;;;;;16.43;6.97;;;;;;;1.91;49.61;101616.50;7393383;19;20387;-52
2022/03/12 01:09:50;;;;;;;17.13;7.07;;;;;;;1.83;48.95;101628.50;7394698;19;20387;-52
2022/03/12 01:12:19;;;;;;;14.90;6.83;;;;;;;1.84;49.15;101635.44;7397302;19;20384;-50
2022/03/12 01:14:49;;;;;;;17.00;6.67;;;;;;;1.83;48.88;101629.44;7399998;19;20754;-49
2022/03/12 01:17:18;;;;;;;44.37;16.40;;;;;;;1.88;49.62;101632.38;7393100;19;20469;-50
2022/03/12 01:19:48;;;;;;;15.20;7.03;;;;;;;1.80;49.21;101633.34;7395787;19;20371;-51
2022/03/12 01:22:20;;;;;;;17.10;7.03;;;;;;;1.82;49.51;101626.72;7393126;19;20390;-50
2022/03/12 01:24:52;;;;;;;16.90;7.93;;;;;;;1.77;49.06;101617.78;7395219;19;20419;-51
2022/03/12 01:27:21;;;;;;;16.17;6.63;;;;;;;1.84;49.75;101623.56;7393984;19;20392;-49
2022/03/12 01:29:51;;;;;;;51.37;17.43;;;;;;;1.71;49.63;101621.59;7394389;19;20119;-48
2022/03/12 01:32:20;;;;;;;14.10;7.10;;;;;;;1.75;49.05;101625.28;7392781;19;20388;-49
2022/03/12 01:34:50;;;;;;;14.67;7.03;;;;;;;1.78;49.45;101629.78;7394933;19;20405;-50
2022/03/12 01:37:20;;;;;;;52.73;19.60;;;;;;;1.82;52.48;101636.91;7392217;19;20383;-52
2022/03/12 01:39:52;;;;;;;15.77;7.20;;;;;;;1.74;50.71;101626.94;7395592;19;20745;-51
2022/03/12 01:42:24;;;;;;;12.97;6.70;;;;;;;1.65;51.04;101622.66;7392831;19;20910;-48
2022/03/12 01:44:54;;;;;;;13.03;5.63;;;;;;;1.53;51.19;101627.53;7393804;19;20427;-48
2022/03/12 01:47:24;;;;;;;19.40;7.90;;;;;;;1.53;51.96;101637.69;7392196;19;20396;-47
2022/03/12 01:49:56;;;;;;;14.77;6.73;;;;;;;1.64;53.29;101631.03;7394173;19;20392;-51
2022/03/12 01:52:25;;;;;;;14.47;6.80;;;;;;;1.53;53.74;101633.47;7390578;19;20723;-49
2022/03/12 01:54:58;;;;;;;13.90;6.33;;;;;;;1.61;53.75;101630.03;7397628;19;20411;-46
2022/03/12 01:57:27;;;;;;;16.30;7.40;;;;;;;1.37;53.03;101625.22;7392122;19;21229;-51
2022/03/12 01:59:57;;;;;;;16.43;7.10;;;;;;;1.24;53.34;101618.06;7394832;19;20398;-53
2022/03/12 02:02:27;;;;;;;16.73;7.60;;;;;;;1.18;55.11;101619.28;7392043;19;20728;-47
2022/03/12 02:04:57;;;;;;;13.93;6.97;;;;;;;1.03;54.51;101617.84;7394129;19;20415;-48
2022/03/12 02:07:29;;;;;;;70.47;24.73;;;;;;;1.98;63.38;101618.84;7391178;19;20421;-51
2022/03/12 02:10:02;;;;;;;32.67;14.70;;;;;;;2.25;61.12;101617.00;7393538;19;20710;-47
2022/03/12 02:12:31;;;;;;;20.13;9.73;;;;;;;2.21;57.12;101623.44;7391653;19;20418;-49
2022/03/12 02:15:03;;;;;;;23.87;11.37;;;;;;;2.41;57.62;101616.72;7393693;19;20395;-51
2022/03/12 02:17:33;;;;;;;31.87;14.80;;;;;;;2.04;61.23;101618.50;7391634;19;20418;-48
2022/03/12 02:20:02;;;;;;;18.17;8.50;;;;;;;1.94;57.41;101620.22;7394177;19;20374;-47
2022/03/12 02:22:31;;;;;;;19.30;7.80;;;;;;;1.29;55.67;101616.84;7391035;19;20395;-52
2022/03/12 02:25:03;;;;;;;20.63;7.60;;;;;;;1.14;56.62;101612.16;7393211;19;20392;-48
2022/03/12 02:27:34;;;;;;;17.53;7.63;;;;;;;1.17;55.45;101612.41;7391650;19;20418;-51
2022/03/12 02:30:07;;;;;;;23.80;9.17;;;;;;;1.17;61.32;101611.50;7393269;19;20376;-48
2022/03/12 02:32:37;;;;;;;17.25;7.18;;;;;;;1.04;57.29;101610.34;7390695;19;20972;-52
2022/03/12 02:35:10;;;;;;;18.23;6.80;;;;;;;1.07;58.10;101610.66;7392857;19;20162;-49
2022/03/12 02:37:47;;;;;;;17.85;7.82;;;;;;;1.00;57.61;101620.09;7390634;19;20405;-49
2022/03/12 02:40:19;;;;;;;21.00;7.87;;;;;;;0.90;57.29;101611.63;7398038;19;20130;-48
2022/03/12 02:42:50;;;;;;;19.02;6.70;;;;;;;0.68;57.39;101598.53;7389879;19;20405;-48
2022/03/12 02:45:22;;;;;;;22.20;7.97;;;;;;;0.66;58.90;101595.84;7392504;19;20618;-49
2022/03/12 02:47:54;;;;;;;14.50;6.70;;;;;;;0.59;57.86;101590.91;7389514;19;20194;-46
2022/03/12 02:50:24;;;;;;;20.15;7.30;;;;;;;0.57;58.72;101599.13;7393011;19;20380;-48
2022/03/12 02:52:54;;;;;;;26.33;7.15;;;;;;;0.46;59.01;101601.53;7387603;19;20269;-49
2022/03/12 02:55:26;;;;;;;20.05;8.05;;;;;;;0.58;58.68;101598.38;7390003;19;20158;-47
2022/03/12 02:57:56;;;;;;;15.70;7.35;;;;;;;0.44;58.65;101603.03;7389184;19;20201;-47
2022/03/12 03:00:27;;;;;;;26.92;11.52;;;;;;;0.55;62.82;101591.38;7397784;19;20225;-50
2022/03/12 03:02:57;;;;;;;16.40;8.25;;;;;;;0.50;58.90;101598.56;7389613;19;20190;-48
2022/03/12 03:05:41;;;;;;;13.13;7.13;;;;;;;0.48;59.50;101594.06;7395894;19;20166;-47
2022/03/12 03:08:12;;;;;;;13.75;6.50;;;;;;;0.50;58.60;101596.00;7388205;19;20257;-52
2022/03/12 03:10:45;;;;;;;15.80;6.72;;;;;;;0.51;60.78;101596.94;7392607;19;20467;-47
2022/03/12 03:13:32;;;;;;;16.48;7.78;;;;;;;0.35;59.43;101599.59;7389409;19;20537;-48
2022/03/12 03:16:03;;;;;;;16.15;7.40;;;;;;;0.32;59.54;101597.69;7391342;19;20163;-50
2022/03/12 03:18:35;;;;;;;17.10;7.45;;;;;;;0.20;59.63;101596.50;7388918;19;20194;-48
2022/03/12 03:21:06;;;;;;;16.38;7.47;;;;;;;0.14;59.52;101591.72;7392136;19;20187;-48
2022/03/12 03:23:35;;;;;;;13.82;6.60;;;;;;;0.15;60.46;101587.53;7390730;19;20196;-48
2022/03/12 03:26:08;;;;;;;16.75;7.10;;;;;;;0.15;59.83;101597.69;7390445;19;20164;-48
2022/03/12 03:28:37;;;;;;;16.88;6.70;;;;;;;0.09;60.77;101593.81;7389573;19;20194;-50
2022/03/12 03:31:08;;;;;;;16.75;7.88;;;;;;;-0.02;61.01;101594.38;7391594;19;20478;-47
2022/03/12 03:33:38;;;;;;;16.25;8.07;;;;;;;0.13;61.32;101590.84;7389076;19;20194;-47
2022/03/12 03:36:07;;;;;;;13.55;6.57;;;;;;;-0.01;60.81;101597.09;7392435;19;20133;-52
2022/03/12 03:38:38;;;;;;;15.60;6.72;;;;;;;-0.07;61.07;101585.44;7388393;19;20266;-47
2022/03/12 03:41:10;;;;;;;19.92;7.05;;;;;;;-0.04;60.61;101585.75;7393117;19;20135;-51
2022/03/12 03:43:40;;;;;;;14.38;6.72;;;;;;;0.01;61.17;101584.56;7388693;19;20186;-49
2022/03/12 03:46:09;;;;;;;16.85;6.75;;;;;;;-0.02;63.31;101581.69;7392184;19;20123;-51
2022/03/12 03:48:40;;;;;;;17.38;7.38;;;;;;;-0.09;61.62;101584.41;7387805;19;20207;-48
2022/03/12 03:51:10;;;;;;;23.65;10.57;;;;;;;-0.04;62.22;101585.75;7390884;19;20133;-47
2022/03/12 03:53:39;;;;;;;12.77;6.15;;;;;;;-0.04;61.74;101575.59;7389222;19;20207;-48
2022/03/12 03:56:11;;;;;;;16.73;7.28;;;;;;;-0.11;61.75;101584.25;7394781;19;20127;-47
2022/03/12 03:58:41;;;;;;;17.75;7.90;;;;;;;0.05;63.11;101575.59;7387356;19;20197;-49
2022/03/12 04:01:12;;;;;;;15.60;7.00;;;;;;;-0.15;61.73;101575.44;7391798;19;20139;-48
2022/03/12 04:03:48;;;;;;;15.00;7.20;;;;;;;-0.08;62.73;101573.50;7388274;19;20213;-47
2022/03/12 04:06:18;;;;;;;16.65;7.60;;;;;;;-0.14;62.88;101577.22;7392542;19;20133;-49
2022/03/12 04:08:48;;;;;;;19.45;7.00;;;;;;;-0.17;62.13;101576.03;7394407;19;20190;-51
2022/03/12 04:11:22;;;;;;;13.77;6.43;;;;;;;-0.15;62.58;101585.56;7397756;19;20190;-46
2022/03/12 04:13:53;;;;;;;16.77;7.15;;;;;;;-0.18;61.52;101582.75;7394823;19;20200;-46
2022/03/12 04:16:23;;;;;;;16.95;7.60;;;;;;;-0.17;62.36;101584.53;7399009;19;20129;-47
2022/03/12 04:18:54;;;;;;;19.38;8.20;;;;;;;-0.12;61.27;101581.56;7392381;19;20197;-46
2022/03/12 04:21:23;;;;;;;18.02;7.53;;;;;;;-0.17;61.38;101583.63;7398915;19;20123;-49
2022/03/12 04:23:53;;;;;;;16.25;6.68;;;;;;;-0.21;60.77;101591.72;7394365;19;20190;-48
2022/03/12 04:26:25;;;;;;;15.32;6.90;;;;;;;-0.16;62.19;101591.41;7398421;19;20137;-46
2022/03/12 04:28:56;;;;;;;14.05;6.70;;;;;;;-0.21;62.34;101597.66;7395382;19;20649;-47
2022/03/12 04:31:26;;;;;;;18.00;6.53;;;;;;;-0.18;63.15;101595.44;7397191;19;20120;-46
2022/03/12 04:33:55;;;;;;;17.38;8.27;;;;;;;-0.24;62.22;101592.31;7394480;19;20261;-50
2022/03/12 04:36:25;;;;;;;15.98;6.38;;;;;;;-0.21;63.39;101594.25;7398474;19;20210;-49
2022/03/12 04:38:55;;;;;;;16.38;7.28;;;;;;;-0.32;62.58;101593.16;7394222;19;20194;-50
2022/03/12 04:41:36;;;;;;;16.15;7.25;;;;;;;-0.35;62.72;101593.78;7398181;19;20123;-50
2022/03/12 04:44:06;;;;;;;18.30;7.03;;;;;;;-0.33;62.63;101592.28;7394231;19;20221;-52
2022/03/12 04:46:37;;;;;;;14.55;7.40;;;;;;;-0.36;62.90;101599.56;7398307;19;20127;-49
2022/03/12 04:49:07;;;;;;;16.33;7.32;;;;;;;-0.37;63.34;101614.66;7393635;19;20190;-48
2022/03/12 04:51:36;;;;;;;15.82;6.85;;;;;;;-0.31;65.07;101600.06;7398980;19;20137;-46
2022/03/12 04:54:06;;;;;;;16.48;6.13;;;;;;;-0.24;64.71;101609.16;7392250;19;20658;-49
2022/03/12 04:56:38;;;;;;;18.17;7.05;;;;;;;-0.05;65.71;101610.22;7401508;19;20135;-47
2022/03/12 04:59:08;;;;;;;16.13;6.57;;;;;;;-0.07;62.62;101616.78;7392677;19;20198;-49
2022/03/12 05:01:37;;;;;;;15.38;6.75;;;;;;;-0.20;62.80;101603.63;7396582;19;20134;-49
2022/03/12 05:04:07;;;;;;;18.00;7.20;;;;;;;-0.25;63.27;101597.22;7391514;19;20861;-48
2022/03/12 05:06:36;;;;;;;16.30;7.25;;;;;;;-0.34;65.55;101607.34;7396913;19;20123;-50
2022/03/12 05:09:06;;;;;;;15.13;7.45;;;;;;;-0.30;63.77;101611.97;7391553;19;20198;-48
2022/03/12 05:11:38;;;;;;;15.85;7.03;;;;;;;-0.39;63.56;101621.19;7395301;19;20134;-48
2022/03/12 05:14:10;;;;;;;16.13;6.50;;;;;;;-0.46;64.41;101607.91;7392172;19;20202;-50
2022/03/12 05:16:40;;;;;;;14.95;6.85;;;;;;;-0.24;65.07;101624.38;7396490;19;20127;-48
2022/03/12 05:19:10;;;;;;;18.92;7.13;;;;;;;-0.16;64.48;101621.84;7390274;19;20197;-47
2022/03/12 05:21:40;;;;;;;14.10;6.65;;;;;;;-0.42;62.93;101621.78;7396135;19;20476;-47
2022/03/12 05:24:10;;;;;;;15.20;7.53;;;;;;;-0.41;63.46;101618.53;7391509;19;20194;-46
2022/03/12 05:26:42;;;;;;;17.80;6.85;;;;;;;-0.40;64.49;101622.84;7400281;19;20134;-47
2022/03/12 05:29:12;;;;;;;16.73;6.97;;;;;;;-0.53;62.87;101618.19;7391633;19;20200;-47
2022/03/12 05:31:41;;;;;;;12.35;6.03;;;;;;;-0.53;63.94;101625.78;7394804;19;20583;-48
2022/03/12 05:34:11;;;;;;;14.10;6.45;;;;;;;-0.32;64.57;101626.13;7391352;19;20190;-48
2022/03/12 05:36:40;;;;;;;18.35;7.15;;;;;;;-0.29;65.01;101634.06;7395611;19;20131;-47
2022/03/12 05:39:09;;;;;;;16.20;6.95;;;;;;;-0.47;65.23;101626.41;7390581;19;20277;-48
2022/03/12 05:41:44;;;;;;;16.05;7.15;;;;;;;-0.55;65.50;101623.09;7395327;19;20127;-51
2022/03/12 05:44:14;;;;;;;17.33;7.35;;;;;;;-0.69;64.62;101626.78;7391227;19;20260;-47
2022/03/12 05:46:44;;;;;;;18.85;6.30;;;;;;;-0.75;63.28;101626.16;7395787;19;20469;-47
2022/03/12 05:49:14;;;;;;;16.25;7.45;;;;;;;-0.72;65.51;101621.41;7390806;19;20194;-51
2022/03/12 05:51:44;;;;;;;18.23;7.18;;;;;;;-0.74;68.13;101635.56;7394271;19;20123;-49
2022/03/12 05:54:14;;;;;;;16.15;6.88;;;;;;;-0.66;66.14;101643.97;7390527;19;20201;-47
2022/03/12 05:56:46;;;;;;;18.73;7.00;;;;;;;-0.74;65.39;101634.66;7395794;19;20127;-48
2022/03/12 05:59:15;;;;;;;16.23;7.93;;;;;;;-0.66;64.72;101636.34;7390655;19;20190;-46
2022/03/12 06:01:45;;;;;;;14.20;6.45;;;;;;;-0.66;65.01;101633.81;7397607;19;20507;-50
2022/03/12 06:04:26;;;;;;;18.92;8.68;;;;;;;-0.19;70.08;101641.84;7389713;19;20606;-47
2022/03/12 06:06:56;;;;;;;25.90;11.35;;;;;;;1.21;74.03;101645.00;7394594;19;20130;-47
2022/03/12 06:09:25;;;;;;;25.95;10.65;;;;;;;0.59;61.90;101644.25;7388880;19;20190;-50
2022/03/12 06:11:58;;;;;;;17.48;7.65;;;;;;;0.23;59.87;101647.56;7393490;19;20131;-47
2022/03/12 06:14:29;;;;;;;15.30;6.80;;;;;;;-0.20;60.31;101650.19;7390123;19;20194;-49
2022/03/12 06:16:59;;;;;;;14.15;6.50;;;;;;;-0.57;60.60;101641.41;7394398;19;20131;-47
2022/03/12 06:19:30;;;;;;;18.98;7.70;;;;;;;-0.70;61.47;101630.06;7389754;19;20194;-49
2022/03/12 06:22:06;;;;;;;17.30;6.95;;;;;;;-0.83;63.21;101634.63;7393800;19;20126;-49
2022/03/12 06:24:36;;;;;;;14.13;6.40;;;;;;;-0.76;63.10;101652.25;7393132;19;20186;-46
2022/03/12 06:27:08;;;;;;;11.43;5.53;;;;;;;-0.79;62.94;101644.34;7394899;19;20141;-49
2022/03/12 06:29:37;;;;;;;15.80;7.07;;;;;;;-0.84;62.80;101633.72;7391514;19;20642;-49
2022/03/12 06:32:09;;;;;;;17.92;8.35;;;;;;;-0.83;65.07;101647.28;7396185;19;20127;-46
2022/03/12 06:34:38;;;;;;;14.18;6.88;;;;;;;-0.79;63.93;101644.34;7392760;19;20204;-50
2022/03/12 06:37:08;;;;;;;14.18;7.05;;;;;;;-0.85;63.42;101638.63;7393351;19;20137;-53
2022/03/12 06:39:37;;;;;;;15.10;6.25;;;;;;;-0.78;63.54;101646.13;7392181;19;20194;-49
2022/03/12 06:42:11;;;;;;;17.10;7.55;;;;;;;-0.73;62.74;101647.50;7393742;19;20127;-50
2022/03/12 06:44:42;;;;;;;17.58;6.88;;;;;;;-0.64;63.09;101656.75;7392259;19;20544;-52
2022/03/12 06:47:13;;;;;;;12.75;6.43;;;;;;;-0.60;63.14;101671.56;7389142;19;20455;-50
2022/03/12 06:49:42;;;;;;;17.20;6.97;;;;;;;-0.64;62.03;101674.50;7396880;19;20141;-49
2022/03/12 06:52:11;;;;;;;15.10;6.40;;;;;;;-0.56;60.69;101668.59;7391335;19;20496;-50
2022/03/12 06:54:41;;;;;;;40.25;15.57;;;;;;;-0.39;68.07;101671.91;7392016;19;20159;-48
2022/03/12 06:57:13;;;;;;;21.17;8.68;;;;;;;-0.36;62.00;101668.03;7389241;19;20127;-50
2022/03/12 06:59:42;;;;;;;15.02;6.65;;;;;;;-0.29;61.21;101674.66;7391866;19;20127;-52
2022/03/12 07:02:12;;;;;;;19.65;6.63;;;;;;;-0.24;58.30;101670.03;7388405;19;20200;-50
2022/03/12 07:04:42;;;;;;;20.52;8.52;;;;;;;-0.21;59.38;101663.63;7391330;19;20502;-53
2022/03/12 07:07:11;;;;;;;14.57;6.55;;;;;;;-0.22;57.48;101669.44;7388661;19;20190;-51
2022/03/12 07:09:41;;;;;;;12.50;5.28;;;;;;;-0.08;57.26;101674.97;7391714;19;20133;-50
2022/03/12 07:12:13;;;;;;;12.50;6.25;;;;;;;0.00;56.65;101679.19;7388151;19;20127;-49
2022/03/12 07:14:43;;;;;;;25.38;7.60;;;;;;;0.39;58.82;101668.63;7391484;19;20541;-47
2022/03/12 07:17:13;;;;;;;16.15;6.85;;;;;;;0.98;56.60;101658.09;7390657;19;20139;-47
2022/03/12 07:19:45;;;;;;;15.07;6.10;;;;;;;1.10;53.43;101676.16;7391431;19;20134;-51
2022/03/12 07:22:15;;;;;;;16.15;6.78;;;;;;;1.36;53.68;101670.06;7388807;19;20145;-51
2022/03/12 07:24:44;;;;;;;13.27;5.95;;;;;;;1.34;50.33;101661.41;7391197;19;20169;-54
2022/03/12 07:27:16;;;;;;;15.15;6.63;;;;;;;1.30;48.78;101661.88;7389019;19;20198;-50
2022/03/12 07:29:46;;;;;;;14.68;6.70;;;;;;;1.37;49.10;101656.59;7390852;19;20497;-51
2022/03/12 07:32:16;;;;;;;12.52;5.90;;;;;;;1.53;49.35;101664.00;7388087;19;20145;-49
2022/03/12 07:34:45;;;;;;;13.60;6.40;;;;;;;1.65;48.10;101661.72;7390879;19;20165;-47
2022/03/12 07:37:15;;;;;;;16.50;6.35;;;;;;;1.69;47.74;101665.44;7387521;19;20138;-48
2022/03/12 07:39:45;;;;;;;16.38;6.82;;;;;;;1.89;47.90;101664.72;7388862;19;20135;-48
2022/03/12 07:42:17;;;;;;;22.47;9.87;;;;;;;1.63;46.36;101675.94;7393298;19;20477;-49
2022/03/12 07:44:46;;;;;;;68.07;25.27;;;;;;;2.00;47.37;101679.31;7397580;19;20417;-49
2022/03/12 07:47:16;;;;;;;25.87;10.00;;;;;;;2.50;45.93;101675.19;7395642;19;20384;-47
2022/03/12 07:49:45;;;;;;;18.57;8.87;;;;;;;2.49;44.43;101676.88;7397411;19;20398;-50
2022/03/12 07:52:17;;;;;;;11.87;5.60;;;;;;;2.49;44.97;101668.31;7394906;19;20391;-51
2022/03/12 07:54:47;;;;;;;13.17;6.70;;;;;;;2.51;44.55;101682.09;7397098;19;20422;-50
2022/03/12 07:57:20;;;;;;;24.17;10.47;;;;;;;2.58;44.50;101675.88;7395522;19;20383;-53
2022/03/12 07:59:49;;;;;;;28.53;10.60;;;;;;;2.51;45.20;101669.38;7398530;19;20373;-49
2022/03/12 08:02:19;;;;;;;15.83;6.33;;;;;;;2.58;45.07;101674.25;7394444;19;20394;-49
2022/03/12 08:04:48;;;;;;;11.10;6.07;;;;;;;2.73;43.10;101673.81;7396679;19;20390;-54
2022/03/12 08:07:17;;;;;;;12.40;5.33;;;;;;;2.69;43.09;101670.09;7394441;19;20371;-50
2022/03/12 08:09:47;;;;;;;14.50;5.20;;;;;;;2.73;42.37;101672.16;7397416;19;20397;-48
2022/03/12 08:12:17;;;;;;;19.53;8.53;;;;;;;3.10;42.57;101674.47;7393960;19;20379;-48
2022/03/12 08:14:49;;;;;;;14.47;7.43;;;;;;;3.13;42.31;101678.94;7395173;19;20406;-50
2022/03/12 08:17:19;;;;;;;20.87;10.60;;;;;;;3.30;42.45;101683.88;7392535;19;20371;-48
2022/03/12 08:19:49;;;;;;;17.77;8.40;;;;;;;3.31;41.50;101678.00;7394765;19;20438;-47
2022/03/12 08:22:19;;;;;;;16.37;7.20;;;;;;;3.33;40.81;101683.22;7393784;19;20392;-47
2022/03/12 08:24:48;;;;;;;19.67;9.90;;;;;;;3.41;41.43;101681.31;7395639;19;20403;-51
2022/03/12 08:27:18;;;;;;;45.23;17.70;;;;;;;3.58;42.19;101682.78;7395496;19;20375;-49
2022/03/12 08:29:54;;;;;;;31.87;15.30;;;;;;;3.95;41.21;101677.31;7396674;19;20402;-47
2022/03/12 08:32:23;;;;;;;19.97;8.00;;;;;;;4.13;40.03;101683.94;7394408;19;20387;-48
2022/03/12 08:34:55;;;;;;;23.70;9.90;;;;;;;4.03;40.81;101683.94;7393680;19;20407;-47
2022/03/12 08:37:24;;;;;;;11.60;6.03;;;;;;;3.81;39.19;101688.91;7392416;19;20355;-49
2022/03/12 08:39:54;;;;;;;14.03;6.43;;;;;;;3.77;39.62;101687.75;7395928;19;20484;-45
2022/03/12 08:42:24;;;;;;;55.67;18.03;;;;;;;4.04;40.63;101688.28;7393275;19;20925;-48
2022/03/12 08:44:57;;;;;;;12.80;6.47;;;;;;;3.99;39.84;101692.13;7395931;19;20411;-47
2022/03/12 08:47:26;;;;;;;26.60;9.13;;;;;;;4.02;40.04;101687.28;7393200;19;20747;-46
2022/03/12 08:49:56;;;;;;;11.10;5.50;;;;;;;3.95;39.53;101698.63;7396161;19;20374;-49
2022/03/12 08:52:25;;;;;;;11.70;5.37;;;;;;;3.89;40.17;101691.34;7393237;19;20410;-51
2022/03/12 08:54:55;;;;;;;88.67;27.23;;;;;;;3.95;40.02;101693.50;7392505;19;20413;-47
2022/03/12 08:57:24;;;;;;;13.57;6.80;;;;;;;3.81;39.41;101689.81;7392426;19;20374;-50
2022/03/12 08:59:56;;;;;;;11.83;5.67;;;;;;;3.77;39.80;101692.88;7396790;19;20459;-46
2022/03/12 09:02:28;;;;;;;18.83;8.20;;;;;;;3.69;39.61;101684.56;7392271;19;20809;-49
2022/03/12 09:04:57;;;;;;;13.93;5.60;;;;;;;3.67;39.16;101680.09;7395338;19;20403;-47
2022/03/12 09:07:27;;;;;;;12.07;6.10;;;;;;;3.73;39.60;101683.16;7392567;19;20379;-48
2022/03/12 09:09:56;;;;;;;11.90;6.33;;;;;;;3.68;40.21;101681.91;7395358;19;20388;-51
2022/03/12 09:12:26;;;;;;;12.43;5.63;;;;;;;3.64;39.27;101686.72;7393213;19;20383;-48
2022/03/12 09:14:58;;;;;;;13.63;6.50;;;;;;;3.66;40.18;101694.53;7394145;19;20403;-47
2022/03/12 09:17:27;;;;;;;11.77;5.83;;;;;;;3.61;39.68;101691.59;7393338;19;20391;-50
2022/03/12 09:19:57;;;;;;;12.50;5.20;;;;;;;3.53;39.73;101690.03;7395143;19;20367;-48
2022/03/12 09:22:26;;;;;;;20.13;8.57;;;;;;;3.57;39.94;101681.88;7391938;19;20367;-50
2022/03/12 09:24:56;;;;;;;11.47;5.83;;;;;;;3.52;40.54;101685.69;7393989;19;20799;-53
2022/03/12 09:27:25;;;;;;;11.73;5.40;;;;;;;3.59;39.98;101680.34;7391813;19;20463;-50
2022/03/12 09:29:57;;;;;;;10.37;5.50;;;;;;;3.62;40.18;101683.16;7394093;19;20399;-47
2022/03/12 09:32:27;;;;;;;11.57;5.23;;;;;;;3.62;40.22;101683.16;7392048;19;20367;-52
2022/03/12 09:34:56;;;;;;;12.70;5.73;;;;;;;3.77;40.34;101688.66;7393450;19;20417;-50
2022/03/12 09:37:26;;;;;;;11.30;5.10;;;;;;;3.87;39.75;101681.78;7391360;19;20392;-50
2022/03/12 09:39:55;;;;;;;42.37;14.67;;;;;;;4.09;41.74;101676.78;7394275;19;20375;-48
2022/03/12 09:42:28;;;;;;;18.03;7.90;;;;;;;4.23;41.36;101679.59;7391281;19;20391;-47
2022/03/12 09:45:02;;;;;;;14.33;5.77;;;;;;;4.31;39.60;101681.13;7394018;19;20408;-47
2022/03/12 09:47:31;;;;;;;12.30;5.90;;;;;;;4.32;38.59;101678.69;7391444;19;20477;-54
2022/03/12 09:50:01;;;;;;;10.93;5.40;;;;;;;4.44;38.79;101675.34;7393672;19;20393;-48
2022/03/12 09:52:30;;;;;;;17.70;7.43;;;;;;;4.51;39.52;101677.63;7391585;19;20390;-51
2022/03/12 09:55:00;;;;;;;11.00;5.87;;;;;;;4.68;39.40;101670.44;7393218;19;20419;-48
2022/03/12 09:57:29;;;;;;;12.13;5.90;;;;;;;4.68;38.71;101670.44;7391043;19;20427;-52
2022/03/12 10:00:01;;;;;;;19.23;6.93;;;;;;;4.71;38.30;101668.09;7393441;19;20926;-49
2022/03/12 10:02:31;;;;;;;110.13;37.63;;;;;;;4.89;39.32;101666.16;7390643;19;21025;-49
2022/03/12 10:05:00;;;;;;;16.40;8.07;;;;;;;4.92;37.88;101657.81;7395888;19;20427;-49
2022/03/12 10:07:30;;;;;;;10.07;5.13;;;;;;;5.00;37.82;101664.44;7388730;19;20418;-49
2022/03/12 10:09:59;;;;;;;13.03;5.33;;;;;;;5.09;37.36;101659.16;7393262;19;20380;-49
2022/03/12 10:12:29;;;;;;;10.63;5.40;;;;;;;5.14;37.02;101661.28;7389270;19;20455;-47
2022/03/12 10:15:03;;;;;;;10.20;5.40;;;;;;;5.16;36.95;101661.41;7392858;19;20439;-51
2022/03/12 10:17:32;;;;;;;12.50;5.60;;;;;;;5.23;36.79;101658.56;7389867;19;20430;-49
2022/03/12 10:20:02;;;;;;;13.33;6.37;;;;;;;5.47;37.02;101657.75;7393014;19;20460;-52
2022/03/12 10:22:32;;;;;;;9.80;5.77;;;;;;;5.53;36.76;101654.03;7389224;19;20407;-53
2022/03/12 10:25:01;;;;;;;11.80;5.90;;;;;;;5.66;36.67;101649.84;7392402;19;20432;-50
2022/03/12 10:27:31;;;;;;;12.07;5.87;;;;;;;5.77;36.61;101649.00;7388663;19;20404;-48
2022/03/12 10:30:03;;;;;;;15.27;5.47;;;;;;;5.84;36.28;101649.44;7392371;19;20397;-48
2022/03/12 10:32:34;;;;;;;10.53;5.73;;;;;;;5.87;36.38;101649.66;7392040;19;20938;-48
2022/03/12 10:35:06;;;;;;;12.07;5.77;;;;;;;6.10;36.53;101653.97;7391654;19;20434;-46
2022/03/12 10:37:36;;;;;;;11.90;5.30;;;;;;;6.14;35.50;101639.72;7389120;19;20479;-49
2022/03/12 10:40:09;;;;;;;13.30;6.00;;;;;;;6.34;36.07;101647.22;7392416;19;20381;-48
2022/03/12 10:42:40;;;;;;;13.60;6.90;;;;;;;6.52;35.76;101641.66;7389410;19;20413;-51
2022/03/12 10:45:14;;;;;;;12.70;6.87;;;;;;;6.65;35.91;101635.72;7391912;19;20430;-50
2022/03/12 10:47:45;;;;;;;23.23;9.63;;;;;;;6.81;35.47;101637.72;7389348;19;20770;-50
2022/03/12 10:50:18;;;;;;;17.73;6.00;;;;;;;6.97;35.45;101649.09;7391781;19;20385;-52
2022/03/12 10:52:49;;;;;;;11.07;5.97;;;;;;;7.14;35.51;101643.44;7391525;19;20500;-48
2022/03/12 10:55:26;;;;;;;11.17;5.77;;;;;;;7.35;35.73;101645.72;7391494;19;20417;-49
2022/03/12 10:58:01;;;;;;;10.33;6.03;;;;;;;7.34;34.81;101648.19;7387736;19;20401;-49
2022/03/12 11:00:37;;;;;;;15.50;7.03;;;;;;;7.22;34.58;101640.53;7396161;19;21028;-49
2022/03/12 11:03:10;;;;;;;12.83;5.93;;;;;;;7.40;34.61;101635.78;7388838;19;20409;-48
2022/03/12 11:05:43;;;;;;;9.27;5.10;;;;;;;7.53;35.08;101638.38;7391313;19;20412;-50
2022/03/12 11:08:18;;;;;;;10.83;5.57;;;;;;;7.61;34.30;101632.88;7387091;19;20767;-51
2022/03/12 11:10:50;;;;;;;10.33;5.10;;;;;;;7.65;34.60;101627.19;7392293;19;20386;-51
2022/03/12 11:13:45;;;;;;;9.40;5.90;;;;;;;7.83;34.71;101627.50;7389896;19;20503;-51
2022/03/12 11:16:21;;;;;;;13.47;6.90;;;;;;;7.75;33.71;101633.81;7387765;19;20429;-52
2022/03/12 11:19:07;;;;;;;13.37;5.90;;;;;;;7.64;33.59;101635.69;7387142;19;20415;-51
2022/03/12 11:21:40;;;;;;;11.40;5.90;;;;;;;7.63;33.91;101634.78;7392426;19;20419;-49
2022/03/12 11:24:15;;;;;;;11.27;5.60;;;;;;;7.78;34.00;101622.06;7387395;19;20423;-50
2022/03/12 11:26:50;;;;;;;10.83;5.80;;;;;;;7.84;34.17;101619.00;7392230;19;20402;-47
2022/03/12 11:29:21;;;;;;;12.67;5.93;;;;;;;7.99;34.13;101611.44;7387524;19;20422;-48
2022/03/12 11:31:54;;;;;;;14.10;6.47;;;;;;;8.05;33.56;101605.81;7392150;19;20414;-50
2022/03/12 11:34:26;;;;;;;13.67;5.40;;;;;;;8.00;33.90;101600.34;7384394;19;20421;-49
2022/03/12 11:37:11;;;;;;;11.27;5.70;;;;;;;8.03;33.43;101609.94;7391955;19;20403;-53
2022/03/12 11:39:43;;;;;;;13.60;6.50;;;;;;;8.15;33.67;101594.47;7390546;19;20414;-50